Main page
METAR-TAF:

METAR-TAF

Airports :

Southampton Airport

Southampton, England

latitude: 50-54N, longitude: 001-24W, elevation: 9 m

Current weather observation

The report was made 2 hours and 33 minutes ago, at 22:20 UTC
Wind 2 kt from the North/Northeast
Temperature 0°C
Humidity 93%
Pressure 1005 hPa
Visibility: 9000 m

METAR: EGHI 202220Z 02002KT 9000 NSC 00/M01 Q1005

Time: 00:53 (00:53 UTC)

Forecast

The report was made 4 hours and 53 minutes ago, at 20:00 UTC
Forecast valid from 20 at 21 UTC to 20 at 23 UTC
Wind 5 kt from the Northeast
Visibility 10 km or more
Scattered clouds at a height of 2500 ft
Temporary
from 20 at 21 UTC to 20 at 23 UTC
Visibility: 7000 m
rain showers
Probability 30% :
Temporary
from 20 at 21 UTC to 20 at 23 UTC
Wind 15 kt from the Northeast with gusts up to 25 kt
Visibility: 4000 m
Broken clouds at a height of 1200 ft
heavy rain showers

TAF: EGHI 202000Z 2021/2023 04005KT 9999 SCT025 TEMPO 2021/2023 7000 SHRA PROB30 TEMPO 2021/2023 05015G25KT 4000 +SHRA BKN012

Weather observations and forecasts of more than 4000 airports (METAR and TAF reports).

The available stations are represented by yellow and red dots on the map.

Hover mouse over dot to see the name of the station.

Then click to see weather observations and forecasts.

To change the map : click on the green buttons with a black cross to zoom in, on the green button with a dash to zoom out, or on the green arrows for adjacent maps.


METAR-TAF: